sensor_id;sensor_type;location;lat;lon;timestamp;P1;durP1;ratioP1;P2;durP2;ratioP2
79755;SDS011;69239;50.678;12.280;2023-04-25T00:00:19;14.17;;;4.67;;
79755;SDS011;69239;50.678;12.280;2023-04-25T00:02:44;7.70;;;4.15;;
79755;SDS011;69239;50.678;12.280;2023-04-25T00:05:11;7.68;;;3.97;;
79755;SDS011;69239;50.678;12.280;2023-04-25T00:07:37;7.82;;;4.03;;
79755;SDS011;69239;50.678;12.280;2023-04-25T00:10:03;7.03;;;3.85;;
79755;SDS011;69239;50.678;12.280;2023-04-25T00:12:28;6.35;;;3.88;;
79755;SDS011;69239;50.678;12.280;2023-04-25T00:14:54;6.03;;;3.70;;
79755;SDS011;69239;50.678;12.280;2023-04-25T00:17:22;5.65;;;2.80;;
79755;SDS011;69239;50.678;12.280;2023-04-25T00:19:49;6.43;;;3.63;;
79755;SDS011;69239;50.678;12.280;2023-04-25T00:22:15;4.63;;;3.13;;
79755;SDS011;69239;50.678;12.280;2023-04-25T00:24:40;6.68;;;3.78;;
79755;SDS011;69239;50.678;12.280;2023-04-25T00:27:06;5.45;;;3.40;;
79755;SDS011;69239;50.678;12.280;2023-04-25T00:29:31;9.05;;;4.40;;
79755;SDS011;69239;50.678;12.280;2023-04-25T00:31:57;7.65;;;4.32;;
79755;SDS011;69239;50.678;12.280;2023-04-25T00:34:22;8.93;;;4.10;;
79755;SDS011;69239;50.678;12.280;2023-04-25T00:36:47;7.00;;;4.23;;
79755;SDS011;69239;50.678;12.280;2023-04-25T00:39:13;7.15;;;4.05;;
79755;SDS011;69239;50.678;12.280;2023-04-25T00:41:38;7.33;;;4.13;;
79755;SDS011;69239;50.678;12.280;2023-04-25T00:44:04;7.57;;;4.38;;
79755;SDS011;69239;50.678;12.280;2023-04-25T00:46:31;6.65;;;4.18;;
79755;SDS011;69239;50.678;12.280;2023-04-25T00:48:57;7.72;;;3.75;;
79755;SDS011;69239;50.678;12.280;2023-04-25T00:51:22;6.10;;;4.22;;
79755;SDS011;69239;50.678;12.280;2023-04-25T00:53:49;6.38;;;3.53;;
79755;SDS011;69239;50.678;12.280;2023-04-25T00:56:15;6.82;;;4.53;;
79755;SDS011;69239;50.678;12.280;2023-04-25T00:58:41;7.50;;;4.07;;
79755;SDS011;69239;50.678;12.280;2023-04-25T01:01:08;8.10;;;3.33;;
79755;SDS011;69239;50.678;12.280;2023-04-25T01:03:34;6.65;;;3.67;;
79755;SDS011;69239;50.678;12.280;2023-04-25T01:06:05;5.97;;;3.97;;
79755;SDS011;69239;50.678;12.280;2023-04-25T01:08:35;7.35;;;3.97;;
79755;SDS011;69239;50.678;12.280;2023-04-25T01:11:02;4.57;;;3.30;;
79755;SDS011;69239;50.678;12.280;2023-04-25T01:13:27;6.18;;;4.00;;
79755;SDS011;69239;50.678;12.280;2023-04-25T01:15:52;7.53;;;4.40;;
79755;SDS011;69239;50.678;12.280;2023-04-25T01:18:18;6.57;;;4.03;;
79755;SDS011;69239;50.678;12.280;2023-04-25T01:20:45;8.90;;;4.28;;
79755;SDS011;69239;50.678;12.280;2023-04-25T01:23:11;7.22;;;4.40;;
79755;SDS011;69239;50.678;12.280;2023-04-25T01:25:37;7.32;;;4.43;;
79755;SDS011;69239;50.678;12.280;2023-04-25T01:28:03;7.40;;;4.68;;
79755;SDS011;69239;50.678;12.280;2023-04-25T01:30:28;6.60;;;4.00;;
79755;SDS011;69239;50.678;12.280;2023-04-25T01:32:55;8.07;;;4.18;;
79755;SDS011;69239;50.678;12.280;2023-04-25T01:35:21;8.35;;;4.30;;
79755;SDS011;69239;50.678;12.280;2023-04-25T01:37:48;5.88;;;3.83;;
79755;SDS011;69239;50.678;12.280;2023-04-25T01:40:14;8.63;;;5.22;;
79755;SDS011;69239;50.678;12.280;2023-04-25T01:42:41;7.32;;;4.38;;
79755;SDS011;69239;50.678;12.280;2023-04-25T01:45:08;9.10;;;5.47;;
79755;SDS011;69239;50.678;12.280;2023-04-25T01:47:36;8.68;;;5.35;;
79755;SDS011;69239;50.678;12.280;2023-04-25T01:50:02;8.43;;;5.32;;
79755;SDS011;69239;50.678;12.280;2023-04-25T01:52:28;10.18;;;4.97;;
79755;SDS011;69239;50.678;12.280;2023-04-25T01:54:54;7.20;;;4.07;;
79755;SDS011;69239;50.678;12.280;2023-04-25T01:57:21;7.28;;;4.50;;
79755;SDS011;69239;50.678;12.280;2023-04-25T01:59:47;7.13;;;4.40;;
79755;SDS011;69239;50.678;12.280;2023-04-25T02:02:12;9.95;;;4.93;;
79755;SDS011;69239;50.678;12.280;2023-04-25T02:04:37;9.00;;;5.07;;
79755;SDS011;69239;50.678;12.280;2023-04-25T02:07:03;8.32;;;5.00;;
79755;SDS011;69239;50.678;12.280;2023-04-25T02:09:29;8.00;;;4.50;;
79755;SDS011;69239;50.678;12.280;2023-04-25T02:11:54;9.27;;;5.40;;
79755;SDS011;69239;50.678;12.280;2023-04-25T02:14:19;8.00;;;4.43;;
79755;SDS011;69239;50.678;12.280;2023-04-25T02:16:45;8.98;;;4.60;;
79755;SDS011;69239;50.678;12.280;2023-04-25T02:19:11;10.80;;;4.65;;
79755;SDS011;69239;50.678;12.280;2023-04-25T02:21:36;10.30;;;5.05;;
79755;SDS011;69239;50.678;12.280;2023-04-25T02:24:02;7.60;;;4.80;;
79755;SDS011;69239;50.678;12.280;2023-04-25T02:26:28;6.55;;;4.40;;
79755;SDS011;69239;50.678;12.280;2023-04-25T02:28:55;7.43;;;4.20;;
79755;SDS011;69239;50.678;12.280;2023-04-25T02:31:21;6.88;;;4.63;;
79755;SDS011;69239;50.678;12.280;2023-04-25T02:33:47;8.88;;;4.32;;
79755;SDS011;69239;50.678;12.280;2023-04-25T02:36:12;9.65;;;6.30;;
79755;SDS011;69239;50.678;12.280;2023-04-25T02:38:37;8.45;;;5.30;;
79755;SDS011;69239;50.678;12.280;2023-04-25T02:41:03;8.95;;;5.28;;
79755;SDS011;69239;50.678;12.280;2023-04-25T02:43:29;7.72;;;5.13;;
79755;SDS011;69239;50.678;12.280;2023-04-25T02:45:54;8.95;;;5.28;;
79755;SDS011;69239;50.678;12.280;2023-04-25T02:48:20;10.15;;;6.30;;
79755;SDS011;69239;50.678;12.280;2023-04-25T02:50:45;10.33;;;6.20;;
79755;SDS011;69239;50.678;12.280;2023-04-25T02:53:10;8.45;;;5.20;;
79755;SDS011;69239;50.678;12.280;2023-04-25T02:55:36;10.50;;;5.75;;
79755;SDS011;69239;50.678;12.280;2023-04-25T02:58:01;9.93;;;5.25;;
79755;SDS011;69239;50.678;12.280;2023-04-25T03:00:27;10.25;;;5.82;;
79755;SDS011;69239;50.678;12.280;2023-04-25T03:02:52;9.48;;;5.70;;
79755;SDS011;69239;50.678;12.280;2023-04-25T03:05:17;7.50;;;5.40;;
79755;SDS011;69239;50.678;12.280;2023-04-25T03:07:43;7.50;;;5.50;;
79755;SDS011;69239;50.678;12.280;2023-04-25T03:10:09;5.82;;;4.07;;
79755;SDS011;69239;50.678;12.280;2023-04-25T03:12:35;9.77;;;5.80;;
79755;SDS011;69239;50.678;12.280;2023-04-25T03:15:01;9.45;;;4.85;;
79755;SDS011;69239;50.678;12.280;2023-04-25T03:17:26;10.02;;;6.40;;
79755;SDS011;69239;50.678;12.280;2023-04-25T03:19:52;7.30;;;4.90;;
79755;SDS011;69239;50.678;12.280;2023-04-25T03:22:17;9.67;;;4.90;;
79755;SDS011;69239;50.678;12.280;2023-04-25T03:24:42;10.35;;;6.15;;
79755;SDS011;69239;50.678;12.280;2023-04-25T03:27:08;11.10;;;5.80;;
79755;SDS011;69239;50.678;12.280;2023-04-25T03:29:33;8.48;;;5.10;;
79755;SDS011;69239;50.678;12.280;2023-04-25T03:31:59;9.95;;;5.25;;
79755;SDS011;69239;50.678;12.280;2023-04-25T03:34:24;9.90;;;5.27;;
79755;SDS011;69239;50.678;12.280;2023-04-25T03:36:50;9.07;;;5.43;;
79755;SDS011;69239;50.678;12.280;2023-04-25T03:39:16;10.63;;;6.22;;
79755;SDS011;69239;50.678;12.280;2023-04-25T03:41:41;9.57;;;6.07;;
79755;SDS011;69239;50.678;12.280;2023-04-25T03:44:07;6.97;;;5.17;;
79755;SDS011;69239;50.678;12.280;2023-04-25T03:46:32;10.43;;;5.90;;
79755;SDS011;69239;50.678;12.280;2023-04-25T03:48:57;8.75;;;4.78;;
79755;SDS011;69239;50.678;12.280;2023-04-25T03:51:24;7.47;;;5.80;;
79755;SDS011;69239;50.678;12.280;2023-04-25T03:53:50;7.35;;;5.20;;
79755;SDS011;69239;50.678;12.280;2023-04-25T03:56:15;7.65;;;4.47;;
79755;SDS011;69239;50.678;12.280;2023-04-25T03:58:41;7.78;;;4.82;;
79755;SDS011;69239;50.678;12.280;2023-04-25T04:01:06;7.47;;;4.93;;
79755;SDS011;69239;50.678;12.280;2023-04-25T04:03:35;9.05;;;5.40;;
79755;SDS011;69239;50.678;12.280;2023-04-25T04:06:01;8.07;;;5.75;;
79755;SDS011;69239;50.678;12.280;2023-04-25T04:08:28;7.82;;;5.18;;
79755;SDS011;69239;50.678;12.280;2023-04-25T04:10:54;9.10;;;5.57;;
79755;SDS011;69239;50.678;12.280;2023-04-25T04:13:19;9.40;;;5.73;;
79755;SDS011;69239;50.678;12.280;2023-04-25T04:15:45;9.60;;;5.30;;
79755;SDS011;69239;50.678;12.280;2023-04-25T04:18:10;8.23;;;5.07;;
79755;SDS011;69239;50.678;12.280;2023-04-25T04:20:36;13.07;;;6.93;;
79755;SDS011;69239;50.678;12.280;2023-04-25T04:23:01;10.13;;;5.93;;
79755;SDS011;69239;50.678;12.280;2023-04-25T04:25:26;8.40;;;5.63;;
79755;SDS011;69239;50.678;12.280;2023-04-25T04:27:52;10.03;;;6.00;;
79755;SDS011;69239;50.678;12.280;2023-04-25T04:30:20;5.90;;;4.28;;
79755;SDS011;69239;50.678;12.280;2023-04-25T04:32:49;7.15;;;3.40;;
79755;SDS011;69239;50.678;12.280;2023-04-25T04:35:15;8.25;;;5.03;;
79755;SDS011;69239;50.678;12.280;2023-04-25T04:37:40;8.98;;;5.80;;
79755;SDS011;69239;50.678;12.280;2023-04-25T04:40:07;11.20;;;5.28;;
79755;SDS011;69239;50.678;12.280;2023-04-25T04:42:33;11.35;;;6.38;;
79755;SDS011;69239;50.678;12.280;2023-04-25T04:45:01;11.85;;;7.32;;
79755;SDS011;69239;50.678;12.280;2023-04-25T04:47:28;8.77;;;4.80;;
79755;SDS011;69239;50.678;12.280;2023-04-25T04:49:56;12.35;;;6.68;;
79755;SDS011;69239;50.678;12.280;2023-04-25T04:52:21;14.85;;;7.60;;
79755;SDS011;69239;50.678;12.280;2023-04-25T04:54:47;7.40;;;3.85;;
79755;SDS011;69239;50.678;12.280;2023-04-25T04:57:12;7.93;;;4.53;;
79755;SDS011;69239;50.678;12.280;2023-04-25T04:59:37;7.15;;;3.60;;
79755;SDS011;69239;50.678;12.280;2023-04-25T05:02:03;13.67;;;7.20;;
79755;SDS011;69239;50.678;12.280;2023-04-25T05:04:28;9.18;;;5.57;;
79755;SDS011;69239;50.678;12.280;2023-04-25T05:06:54;6.30;;;4.03;;
79755;SDS011;69239;50.678;12.280;2023-04-25T05:09:19;5.90;;;3.88;;
79755;SDS011;69239;50.678;12.280;2023-04-25T05:11:45;5.25;;;3.30;;
79755;SDS011;69239;50.678;12.280;2023-04-25T05:14:10;9.55;;;3.83;;
79755;SDS011;69239;50.678;12.280;2023-04-25T05:16:36;5.88;;;3.03;;
79755;SDS011;69239;50.678;12.280;2023-04-25T05:19:01;5.50;;;3.28;;
79755;SDS011;69239;50.678;12.280;2023-04-25T05:21:27;6.55;;;3.15;;
79755;SDS011;69239;50.678;12.280;2023-04-25T05:23:53;4.03;;;2.75;;
79755;SDS011;69239;50.678;12.280;2023-04-25T05:26:18;5.00;;;3.20;;
79755;SDS011;69239;50.678;12.280;2023-04-25T05:28:45;5.57;;;2.38;;
79755;SDS011;69239;50.678;12.280;2023-04-25T05:31:11;4.97;;;3.10;;
79755;SDS011;69239;50.678;12.280;2023-04-25T05:33:36;5.38;;;2.47;;
79755;SDS011;69239;50.678;12.280;2023-04-25T05:36:02;5.45;;;2.55;;
79755;SDS011;69239;50.678;12.280;2023-04-25T05:38:27;4.63;;;2.72;;
79755;SDS011;69239;50.678;12.280;2023-04-25T05:40:54;4.13;;;2.80;;
79755;SDS011;69239;50.678;12.280;2023-04-25T05:43:19;6.60;;;2.88;;
79755;SDS011;69239;50.678;12.280;2023-04-25T05:45:45;4.38;;;2.67;;
79755;SDS011;69239;50.678;12.280;2023-04-25T05:48:11;4.68;;;2.97;;
79755;SDS011;69239;50.678;12.280;2023-04-25T05:50:37;5.32;;;2.80;;
79755;SDS011;69239;50.678;12.280;2023-04-25T05:53:02;5.80;;;3.08;;
79755;SDS011;69239;50.678;12.280;2023-04-25T05:55:28;6.75;;;3.30;;
79755;SDS011;69239;50.678;12.280;2023-04-25T05:57:53;5.03;;;2.92;;
79755;SDS011;69239;50.678;12.280;2023-04-25T06:00:18;5.38;;;3.65;;
79755;SDS011;69239;50.678;12.280;2023-04-25T06:02:44;6.85;;;3.08;;
79755;SDS011;69239;50.678;12.280;2023-04-25T06:05:09;7.28;;;3.65;;
79755;SDS011;69239;50.678;12.280;2023-04-25T06:07:35;5.78;;;3.72;;
79755;SDS011;69239;50.678;12.280;2023-04-25T06:10:00;6.05;;;3.65;;
79755;SDS011;69239;50.678;12.280;2023-04-25T06:12:26;8.80;;;3.72;;
79755;SDS011;69239;50.678;12.280;2023-04-25T06:14:51;8.50;;;5.07;;
79755;SDS011;69239;50.678;12.280;2023-04-25T06:17:17;7.35;;;3.78;;
79755;SDS011;69239;50.678;12.280;2023-04-25T06:19:42;6.40;;;3.20;;
79755;SDS011;69239;50.678;12.280;2023-04-25T06:22:07;5.75;;;3.40;;
79755;SDS011;69239;50.678;12.280;2023-04-25T06:24:33;5.43;;;3.70;;
79755;SDS011;69239;50.678;12.280;2023-04-25T06:26:59;5.65;;;3.78;;
79755;SDS011;69239;50.678;12.280;2023-04-25T06:29:25;6.25;;;4.07;;
79755;SDS011;69239;50.678;12.280;2023-04-25T06:31:50;7.78;;;4.10;;
79755;SDS011;69239;50.678;12.280;2023-04-25T06:34:16;6.93;;;3.88;;
79755;SDS011;69239;50.678;12.280;2023-04-25T06:36:42;7.05;;;3.60;;
79755;SDS011;69239;50.678;12.280;2023-04-25T06:39:09;5.20;;;3.35;;
79755;SDS011;69239;50.678;12.280;2023-04-25T06:41:34;7.68;;;3.92;;
79755;SDS011;69239;50.678;12.280;2023-04-25T06:44:00;8.90;;;3.80;;
79755;SDS011;69239;50.678;12.280;2023-04-25T06:46:26;6.97;;;3.67;;
79755;SDS011;69239;50.678;12.280;2023-04-25T06:48:51;6.28;;;3.92;;
79755;SDS011;69239;50.678;12.280;2023-04-25T06:51:17;7.50;;;4.00;;
79755;SDS011;69239;50.678;12.280;2023-04-25T06:53:42;5.28;;;3.60;;
79755;SDS011;69239;50.678;12.280;2023-04-25T06:56:08;10.20;;;4.30;;
79755;SDS011;69239;50.678;12.280;2023-04-25T06:58:33;7.07;;;3.60;;
79755;SDS011;69239;50.678;12.280;2023-04-25T07:00:59;4.78;;;3.22;;
79755;SDS011;69239;50.678;12.280;2023-04-25T07:03:24;5.93;;;3.72;;
79755;SDS011;69239;50.678;12.280;2023-04-25T07:05:50;8.13;;;3.97;;
79755;SDS011;69239;50.678;12.280;2023-04-25T07:08:15;6.75;;;3.70;;
79755;SDS011;69239;50.678;12.280;2023-04-25T07:10:41;8.65;;;4.00;;
79755;SDS011;69239;50.678;12.280;2023-04-25T07:13:07;4.88;;;3.58;;
79755;SDS011;69239;50.678;12.280;2023-04-25T07:15:32;10.80;;;4.03;;
79755;SDS011;69239;50.678;12.280;2023-04-25T07:17:58;8.65;;;4.32;;
79755;SDS011;69239;50.678;12.280;2023-04-25T07:20:24;7.72;;;3.78;;
79755;SDS011;69239;50.678;12.280;2023-04-25T07:22:49;5.88;;;3.20;;
79755;SDS011;69239;50.678;12.280;2023-04-25T07:25:15;6.28;;;3.55;;
79755;SDS011;69239;50.678;12.280;2023-04-25T07:27:41;5.03;;;3.17;;
79755;SDS011;69239;50.678;12.280;2023-04-25T07:30:07;5.20;;;3.50;;
79755;SDS011;69239;50.678;12.280;2023-04-25T07:32:33;6.70;;;3.20;;
79755;SDS011;69239;50.678;12.280;2023-04-25T07:34:58;5.85;;;2.47;;
79755;SDS011;69239;50.678;12.280;2023-04-25T07:37:24;6.22;;;3.38;;
79755;SDS011;69239;50.678;12.280;2023-04-25T07:42:29;5.25;;;2.90;;
79755;SDS011;69239;50.678;12.280;2023-04-25T07:44:55;5.28;;;2.45;;
79755;SDS011;69239;50.678;12.280;2023-04-25T07:47:21;6.60;;;3.08;;
79755;SDS011;69239;50.678;12.280;2023-04-25T07:49:46;5.68;;;3.03;;
79755;SDS011;69239;50.678;12.280;2023-04-25T07:52:13;5.70;;;3.05;;
79755;SDS011;69239;50.678;12.280;2023-04-25T07:54:39;5.35;;;3.10;;
79755;SDS011;69239;50.678;12.280;2023-04-25T07:57:04;5.40;;;3.70;;
79755;SDS011;69239;50.678;12.280;2023-04-25T07:59:31;7.95;;;3.50;;
79755;SDS011;69239;50.678;12.280;2023-04-25T08:01:57;6.50;;;3.17;;
79755;SDS011;69239;50.678;12.280;2023-04-25T08:04:24;6.10;;;3.33;;
79755;SDS011;69239;50.678;12.280;2023-04-25T08:06:50;7.05;;;3.40;;
79755;SDS011;69239;50.678;12.280;2023-04-25T08:09:16;4.60;;;3.22;;
79755;SDS011;69239;50.678;12.280;2023-04-25T08:11:42;7.05;;;3.25;;
79755;SDS011;69239;50.678;12.280;2023-04-25T08:14:09;5.22;;;3.33;;
79755;SDS011;69239;50.678;12.280;2023-04-25T08:16:34;5.03;;;2.95;;
79755;SDS011;69239;50.678;12.280;2023-04-25T08:19:00;4.85;;;2.63;;
79755;SDS011;69239;50.678;12.280;2023-04-25T08:21:25;8.75;;;2.90;;
79755;SDS011;69239;50.678;12.280;2023-04-25T08:23:52;6.70;;;3.00;;
79755;SDS011;69239;50.678;12.280;2023-04-25T08:26:18;4.10;;;2.63;;
79755;SDS011;69239;50.678;12.280;2023-04-25T08:28:43;3.65;;;2.28;;
79755;SDS011;69239;50.678;12.280;2023-04-25T08:31:08;3.78;;;2.28;;
79755;SDS011;69239;50.678;12.280;2023-04-25T08:33:34;5.18;;;2.50;;
79755;SDS011;69239;50.678;12.280;2023-04-25T08:35:59;4.68;;;2.70;;
79755;SDS011;69239;50.678;12.280;2023-04-25T08:38:25;3.45;;;2.53;;
79755;SDS011;69239;50.678;12.280;2023-04-25T08:40:50;4.68;;;2.67;;
79755;SDS011;69239;50.678;12.280;2023-04-25T08:43:18;4.68;;;2.30;;
79755;SDS011;69239;50.678;12.280;2023-04-25T08:45:44;4.97;;;2.60;;
79755;SDS011;69239;50.678;12.280;2023-04-25T08:48:11;3.13;;;2.38;;
79755;SDS011;69239;50.678;12.280;2023-04-25T08:50:39;4.68;;;2.70;;
79755;SDS011;69239;50.678;12.280;2023-04-25T08:53:08;5.10;;;2.70;;
79755;SDS011;69239;50.678;12.280;2023-04-25T08:55:36;3.92;;;2.80;;
79755;SDS011;69239;50.678;12.280;2023-04-25T08:58:04;4.15;;;2.67;;
79755;SDS011;69239;50.678;12.280;2023-04-25T09:00:30;5.10;;;2.25;;
79755;SDS011;69239;50.678;12.280;2023-04-25T09:02:56;3.97;;;2.53;;
79755;SDS011;69239;50.678;12.280;2023-04-25T09:05:23;5.10;;;2.38;;
79755;SDS011;69239;50.678;12.280;2023-04-25T09:07:48;5.28;;;2.05;;
79755;SDS011;69239;50.678;12.280;2023-04-25T09:10:14;4.93;;;2.97;;
79755;SDS011;69239;50.678;12.280;2023-04-25T09:12:39;3.05;;;2.22;;
79755;SDS011;69239;50.678;12.280;2023-04-25T09:15:06;2.92;;;1.75;;
79755;SDS011;69239;50.678;12.280;2023-04-25T09:17:35;2.65;;;1.85;;
79755;SDS011;69239;50.678;12.280;2023-04-25T09:20:09;2.95;;;1.42;;
79755;SDS011;69239;50.678;12.280;2023-04-25T09:22:37;1.50;;;1.20;;
79755;SDS011;69239;50.678;12.280;2023-04-25T09:25:03;1.50;;;0.82;;
79755;SDS011;69239;50.678;12.280;2023-04-25T09:27:33;2.90;;;1.10;;
79755;SDS011;69239;50.678;12.280;2023-04-25T09:29:59;1.30;;;0.98;;
79755;SDS011;69239;50.678;12.280;2023-04-25T09:32:25;3.15;;;1.30;;
79755;SDS011;69239;50.678;12.280;2023-04-25T09:34:55;3.25;;;1.80;;
79755;SDS011;69239;50.678;12.280;2023-04-25T09:37:22;4.30;;;1.90;;
79755;SDS011;69239;50.678;12.280;2023-04-25T09:39:51;3.15;;;2.00;;
79755;SDS011;69239;50.678;12.280;2023-04-25T09:42:21;2.40;;;1.65;;
79755;SDS011;69239;50.678;12.280;2023-04-25T09:44:48;3.55;;;1.77;;
79755;SDS011;69239;50.678;12.280;2023-04-25T09:47:17;3.05;;;1.83;;
79755;SDS011;69239;50.678;12.280;2023-04-25T09:49:43;4.07;;;2.47;;
79755;SDS011;69239;50.678;12.280;2023-04-25T09:52:09;3.10;;;2.13;;
79755;SDS011;69239;50.678;12.280;2023-04-25T09:54:38;3.95;;;2.30;;
79755;SDS011;69239;50.678;12.280;2023-04-25T09:57:10;3.33;;;2.30;;
79755;SDS011;69239;50.678;12.280;2023-04-25T09:59:43;3.58;;;2.00;;
79755;SDS011;69239;50.678;12.280;2023-04-25T10:02:13;3.95;;;2.38;;
79755;SDS011;69239;50.678;12.280;2023-04-25T10:04:40;3.15;;;1.98;;
79755;SDS011;69239;50.678;12.280;2023-04-25T10:07:07;4.05;;;2.30;;
79755;SDS011;69239;50.678;12.280;2023-04-25T10:09:33;2.85;;;2.42;;
79755;SDS011;69239;50.678;12.280;2023-04-25T10:12:02;6.97;;;2.08;;
79755;SDS011;69239;50.678;12.280;2023-04-25T10:14:29;3.08;;;1.90;;
79755;SDS011;69239;50.678;12.280;2023-04-25T10:16:57;2.70;;;2.28;;
79755;SDS011;69239;50.678;12.280;2023-04-25T10:19:23;3.53;;;2.20;;
79755;SDS011;69239;50.678;12.280;2023-04-25T10:21:51;4.50;;;2.15;;
79755;SDS011;69239;50.678;12.280;2023-04-25T10:24:19;2.85;;;2.00;;
79755;SDS011;69239;50.678;12.280;2023-04-25T10:26:45;5.28;;;2.10;;
79755;SDS011;69239;50.678;12.280;2023-04-25T10:29:12;2.88;;;2.30;;
79755;SDS011;69239;50.678;12.280;2023-04-25T10:31:55;5.55;;;2.47;;
79755;SDS011;69239;50.678;12.280;2023-04-25T10:34:37;3.67;;;2.13;;
79755;SDS011;69239;50.678;12.280;2023-04-25T10:37:08;4.35;;;2.75;;
79755;SDS011;69239;50.678;12.280;2023-04-25T10:39:35;4.32;;;2.28;;
79755;SDS011;69239;50.678;12.280;2023-04-25T10:42:02;2.78;;;1.80;;
79755;SDS011;69239;50.678;12.280;2023-04-25T10:44:28;3.97;;;2.50;;
79755;SDS011;69239;50.678;12.280;2023-04-25T10:46:59;3.80;;;2.25;;
79755;SDS011;69239;50.678;12.280;2023-04-25T10:49:30;2.85;;;1.85;;
79755;SDS011;69239;50.678;12.280;2023-04-25T10:54:42;3.20;;;2.13;;
79755;SDS011;69239;50.678;12.280;2023-04-25T10:57:24;3.13;;;2.15;;
79755;SDS011;69239;50.678;12.280;2023-04-25T10:59:57;4.32;;;2.25;;
79755;SDS011;69239;50.678;12.280;2023-04-25T11:02:26;4.55;;;2.30;;
79755;SDS011;69239;50.678;12.280;2023-04-25T11:04:53;3.47;;;2.25;;
79755;SDS011;69239;50.678;12.280;2023-04-25T11:10:01;4.85;;;2.70;;
79755;SDS011;69239;50.678;12.280;2023-04-25T11:12:29;4.70;;;2.80;;
79755;SDS011;69239;50.678;12.280;2023-04-25T11:15:03;7.93;;;3.08;;
79755;SDS011;69239;50.678;12.280;2023-04-25T11:17:29;3.45;;;2.33;;
79755;SDS011;69239;50.678;12.280;2023-04-25T11:19:55;4.13;;;2.78;;
79755;SDS011;69239;50.678;12.280;2023-04-25T11:22:21;4.18;;;2.97;;
79755;SDS011;69239;50.678;12.280;2023-04-25T11:24:47;4.53;;;2.80;;
79755;SDS011;69239;50.678;12.280;2023-04-25T11:27:12;5.68;;;3.13;;
79755;SDS011;69239;50.678;12.280;2023-04-25T11:29:38;3.97;;;2.08;;
79755;SDS011;69239;50.678;12.280;2023-04-25T11:32:03;4.00;;;2.22;;
79755;SDS011;69239;50.678;12.280;2023-04-25T11:34:29;6.15;;;2.65;;
79755;SDS011;69239;50.678;12.280;2023-04-25T11:36:59;3.03;;;1.90;;
79755;SDS011;69239;50.678;12.280;2023-04-25T11:39:25;2.50;;;1.80;;
79755;SDS011;69239;50.678;12.280;2023-04-25T11:41:52;2.92;;;1.67;;
79755;SDS011;69239;50.678;12.280;2023-04-25T11:44:18;5.07;;;2.50;;
79755;SDS011;69239;50.678;12.280;2023-04-25T11:46:44;2.90;;;1.85;;
79755;SDS011;69239;50.678;12.280;2023-04-25T11:49:10;3.50;;;2.20;;
79755;SDS011;69239;50.678;12.280;2023-04-25T11:51:42;2.70;;;2.10;;
79755;SDS011;69239;50.678;12.280;2023-04-25T11:54:12;4.45;;;2.20;;
79755;SDS011;69239;50.678;12.280;2023-04-25T11:56:40;4.70;;;2.80;;
79755;SDS011;69239;50.678;12.280;2023-04-25T11:59:07;3.05;;;2.03;;
79755;SDS011;69239;50.678;12.280;2023-04-25T12:01:33;2.28;;;1.58;;
79755;SDS011;69239;50.678;12.280;2023-04-25T12:04:16;3.05;;;1.98;;
79755;SDS011;69239;50.678;12.280;2023-04-25T12:06:44;2.15;;;1.40;;
79755;SDS011;69239;50.678;12.280;2023-04-25T12:09:14;2.13;;;1.70;;
79755;SDS011;69239;50.678;12.280;2023-04-25T12:11:54;2.58;;;1.60;;
79755;SDS011;69239;50.678;12.280;2023-04-25T12:14:22;3.03;;;1.45;;
79755;SDS011;69239;50.678;12.280;2023-04-25T12:16:52;1.92;;;1.20;;
79755;SDS011;69239;50.678;12.280;2023-04-25T12:19:19;2.28;;;1.33;;
79755;SDS011;69239;50.678;12.280;2023-04-25T12:21:45;2.63;;;1.20;;
79755;SDS011;69239;50.678;12.280;2023-04-25T12:24:12;2.53;;;1.50;;
79755;SDS011;69239;50.678;12.280;2023-04-25T12:26:49;2.10;;;1.10;;
79755;SDS011;69239;50.678;12.280;2023-04-25T12:29:19;4.93;;;1.73;;
79755;SDS011;69239;50.678;12.280;2023-04-25T12:31:46;2.58;;;1.27;;
79755;SDS011;69239;50.678;12.280;2023-04-25T12:34:12;5.68;;;1.48;;
79755;SDS011;69239;50.678;12.280;2023-04-25T12:36:37;2.38;;;1.17;;
79755;SDS011;69239;50.678;12.280;2023-04-25T12:39:04;3.33;;;1.40;;
79755;SDS011;69239;50.678;12.280;2023-04-25T12:41:30;3.78;;;1.40;;
79755;SDS011;69239;50.678;12.280;2023-04-25T12:43:55;3.30;;;1.52;;
79755;SDS011;69239;50.678;12.280;2023-04-25T12:46:21;6.60;;;1.75;;
79755;SDS011;69239;50.678;12.280;2023-04-25T12:48:47;2.78;;;1.40;;
79755;SDS011;69239;50.678;12.280;2023-04-25T12:51:13;3.50;;;1.33;;
79755;SDS011;69239;50.678;12.280;2023-04-25T12:53:38;6.18;;;1.67;;
79755;SDS011;69239;50.678;12.280;2023-04-25T12:56:05;5.55;;;2.70;;
79755;SDS011;69239;50.678;12.280;2023-04-25T12:58:32;4.30;;;1.70;;
79755;SDS011;69239;50.678;12.280;2023-04-25T13:00:58;6.47;;;1.60;;
79755;SDS011;69239;50.678;12.280;2023-04-25T13:03:23;4.45;;;1.90;;
79755;SDS011;69239;50.678;12.280;2023-04-25T13:05:49;5.30;;;2.17;;
79755;SDS011;69239;50.678;12.280;2023-04-25T13:08:17;4.82;;;1.80;;
79755;SDS011;69239;50.678;12.280;2023-04-25T13:10:45;3.13;;;1.57;;
79755;SDS011;69239;50.678;12.280;2023-04-25T13:13:10;2.92;;;1.67;;
79755;SDS011;69239;50.678;12.280;2023-04-25T13:15:36;5.18;;;2.50;;
79755;SDS011;69239;50.678;12.280;2023-04-25T13:18:02;5.15;;;2.03;;
79755;SDS011;69239;50.678;12.280;2023-04-25T13:20:28;1.95;;;1.20;;
79755;SDS011;69239;50.678;12.280;2023-04-25T13:22:54;7.20;;;1.57;;
79755;SDS011;69239;50.678;12.280;2023-04-25T13:25:20;5.38;;;1.50;;
79755;SDS011;69239;50.678;12.280;2023-04-25T13:27:46;6.45;;;1.45;;
79755;SDS011;69239;50.678;12.280;2023-04-25T13:30:12;3.65;;;1.80;;
79755;SDS011;69239;50.678;12.280;2023-04-25T13:32:38;5.15;;;2.05;;
79755;SDS011;69239;50.678;12.280;2023-04-25T13:35:10;4.00;;;1.50;;
79755;SDS011;69239;50.678;12.280;2023-04-25T13:37:37;3.72;;;1.27;;
79755;SDS011;69239;50.678;12.280;2023-04-25T13:40:04;4.20;;;1.50;;
79755;SDS011;69239;50.678;12.280;2023-04-25T13:42:34;6.05;;;1.50;;
79755;SDS011;69239;50.678;12.280;2023-04-25T13:45:01;7.07;;;2.10;;
79755;SDS011;69239;50.678;12.280;2023-04-25T13:47:27;5.00;;;1.55;;
79755;SDS011;69239;50.678;12.280;2023-04-25T13:49:53;7.18;;;1.70;;
79755;SDS011;69239;50.678;12.280;2023-04-25T13:52:19;4.15;;;1.73;;
79755;SDS011;69239;50.678;12.280;2023-04-25T13:54:45;5.00;;;1.60;;
79755;SDS011;69239;50.678;12.280;2023-04-25T13:57:11;4.97;;;1.65;;
79755;SDS011;69239;50.678;12.280;2023-04-25T13:59:37;5.97;;;1.88;;
79755;SDS011;69239;50.678;12.280;2023-04-25T14:02:03;4.10;;;1.42;;
79755;SDS011;69239;50.678;12.280;2023-04-25T14:04:28;2.95;;;1.60;;
79755;SDS011;69239;50.678;12.280;2023-04-25T14:06:53;5.13;;;1.60;;
79755;SDS011;69239;50.678;12.280;2023-04-25T14:09:19;3.38;;;1.52;;
79755;SDS011;69239;50.678;12.280;2023-04-25T14:11:45;4.28;;;1.60;;
79755;SDS011;69239;50.678;12.280;2023-04-25T14:14:11;4.75;;;1.58;;
79755;SDS011;69239;50.678;12.280;2023-04-25T14:16:38;4.55;;;1.48;;
79755;SDS011;69239;50.678;12.280;2023-04-25T14:19:03;6.68;;;1.85;;
79755;SDS011;69239;50.678;12.280;2023-04-25T14:21:28;7.15;;;1.80;;
79755;SDS011;69239;50.678;12.280;2023-04-25T14:23:57;5.43;;;2.00;;
79755;SDS011;69239;50.678;12.280;2023-04-25T14:26:22;6.80;;;2.10;;
79755;SDS011;69239;50.678;12.280;2023-04-25T14:28:48;4.25;;;1.90;;
79755;SDS011;69239;50.678;12.280;2023-04-25T14:31:13;7.63;;;1.73;;
79755;SDS011;69239;50.678;12.280;2023-04-25T14:33:38;3.78;;;1.50;;
79755;SDS011;69239;50.678;12.280;2023-04-25T14:36:07;6.25;;;1.45;;